sensor_id;sensor_type;location;lat;lon;timestamp;P1;durP1;ratioP1;P2;durP2;ratioP2
81154;SDS011;70631;50.436;7.826;2023-06-14T00:02:03;6.17;;;3.93;;
81154;SDS011;70631;50.436;7.826;2023-06-14T00:04:28;7.60;;;4.20;;
81154;SDS011;70631;50.436;7.826;2023-06-14T00:06:54;4.93;;;4.17;;
81154;SDS011;70631;50.436;7.826;2023-06-14T00:09:21;5.88;;;3.92;;
81154;SDS011;70631;50.436;7.826;2023-06-14T00:11:47;4.43;;;3.90;;
81154;SDS011;70631;50.436;7.826;2023-06-14T00:14:12;4.50;;;3.97;;
81154;SDS011;70631;50.436;7.826;2023-06-14T00:16:37;5.33;;;3.97;;
81154;SDS011;70631;50.436;7.826;2023-06-14T00:19:04;6.32;;;4.60;;
81154;SDS011;70631;50.436;7.826;2023-06-14T00:21:29;5.82;;;4.35;;
81154;SDS011;70631;50.436;7.826;2023-06-14T00:23:56;5.53;;;4.10;;
81154;SDS011;70631;50.436;7.826;2023-06-14T00:26:23;6.35;;;4.78;;
81154;SDS011;70631;50.436;7.826;2023-06-14T00:28:48;4.47;;;3.95;;
81154;SDS011;70631;50.436;7.826;2023-06-14T00:31:13;4.27;;;3.83;;
81154;SDS011;70631;50.436;7.826;2023-06-14T00:33:39;5.80;;;4.00;;
81154;SDS011;70631;50.436;7.826;2023-06-14T00:36:04;5.53;;;4.30;;
81154;SDS011;70631;50.436;7.826;2023-06-14T00:38:30;5.07;;;4.57;;
81154;SDS011;70631;50.436;7.826;2023-06-14T00:40:55;4.97;;;4.30;;
81154;SDS011;70631;50.436;7.826;2023-06-14T00:43:20;4.60;;;3.70;;
81154;SDS011;70631;50.436;7.826;2023-06-14T00:45:45;6.70;;;4.47;;
81154;SDS011;70631;50.436;7.826;2023-06-14T00:48:11;5.60;;;4.38;;
81154;SDS011;70631;50.436;7.826;2023-06-14T00:50:38;5.80;;;4.18;;
81154;SDS011;70631;50.436;7.826;2023-06-14T00:53:05;4.60;;;4.00;;
81154;SDS011;70631;50.436;7.826;2023-06-14T00:55:31;4.70;;;4.30;;
81154;SDS011;70631;50.436;7.826;2023-06-14T00:57:58;4.93;;;4.30;;
81154;SDS011;70631;50.436;7.826;2023-06-14T01:00:23;5.28;;;4.00;;
81154;SDS011;70631;50.436;7.826;2023-06-14T01:02:48;5.33;;;4.80;;
81154;SDS011;70631;50.436;7.826;2023-06-14T01:05:16;5.10;;;4.18;;
81154;SDS011;70631;50.436;7.826;2023-06-14T01:13:15;6.85;;;4.47;;
81154;SDS011;70631;50.436;7.826;2023-06-14T01:15:46;4.93;;;4.43;;
81154;SDS011;70631;50.436;7.826;2023-06-14T01:18:12;6.47;;;4.35;;
81154;SDS011;70631;50.436;7.826;2023-06-14T01:20:44;5.47;;;4.05;;
81154;SDS011;70631;50.436;7.826;2023-06-14T01:23:14;5.93;;;4.30;;
81154;SDS011;70631;50.436;7.826;2023-06-14T01:25:41;6.88;;;4.53;;
81154;SDS011;70631;50.436;7.826;2023-06-14T01:28:09;5.50;;;4.28;;
81154;SDS011;70631;50.436;7.826;2023-06-14T01:30:39;5.05;;;4.53;;
81154;SDS011;70631;50.436;7.826;2023-06-14T01:33:13;6.25;;;4.65;;
81154;SDS011;70631;50.436;7.826;2023-06-14T01:35:43;5.20;;;4.30;;
81154;SDS011;70631;50.436;7.826;2023-06-14T01:38:10;5.82;;;4.68;;
81154;SDS011;70631;50.436;7.826;2023-06-14T01:40:37;7.15;;;4.85;;
81154;SDS011;70631;50.436;7.826;2023-06-14T01:43:04;5.88;;;4.50;;
81154;SDS011;70631;50.436;7.826;2023-06-14T01:45:31;5.65;;;4.40;;
81154;SDS011;70631;50.436;7.826;2023-06-14T01:47:57;6.65;;;4.63;;
81154;SDS011;70631;50.436;7.826;2023-06-14T01:50:23;5.10;;;4.60;;
81154;SDS011;70631;50.436;7.826;2023-06-14T01:52:48;12.07;;;4.97;;
81154;SDS011;70631;50.436;7.826;2023-06-14T01:55:13;7.47;;;4.10;;
81154;SDS011;70631;50.436;7.826;2023-06-14T01:57:38;5.30;;;4.40;;
81154;SDS011;70631;50.436;7.826;2023-06-14T02:00:04;4.80;;;4.40;;
81154;SDS011;70631;50.436;7.826;2023-06-14T02:02:33;5.15;;;4.65;;
81154;SDS011;70631;50.436;7.826;2023-06-14T02:04:58;5.30;;;4.70;;
81154;SDS011;70631;50.436;7.826;2023-06-14T02:07:23;5.20;;;4.70;;
81154;SDS011;70631;50.436;7.826;2023-06-14T02:09:49;5.18;;;4.68;;
81154;SDS011;70631;50.436;7.826;2023-06-14T02:12:14;4.78;;;4.28;;
81154;SDS011;70631;50.436;7.826;2023-06-14T02:14:40;6.57;;;4.43;;
81154;SDS011;70631;50.436;7.826;2023-06-14T02:17:05;5.87;;;4.63;;
81154;SDS011;70631;50.436;7.826;2023-06-14T02:19:31;4.80;;;4.25;;
81154;SDS011;70631;50.436;7.826;2023-06-14T02:21:56;7.22;;;4.55;;
81154;SDS011;70631;50.436;7.826;2023-06-14T02:24:22;7.03;;;4.67;;
81154;SDS011;70631;50.436;7.826;2023-06-14T02:26:48;6.32;;;4.60;;
81154;SDS011;70631;50.436;7.826;2023-06-14T02:29:13;6.20;;;4.47;;
81154;SDS011;70631;50.436;7.826;2023-06-14T02:31:39;4.82;;;4.13;;
81154;SDS011;70631;50.436;7.826;2023-06-14T02:34:05;4.55;;;4.10;;
81154;SDS011;70631;50.436;7.826;2023-06-14T02:36:30;5.93;;;4.33;;
81154;SDS011;70631;50.436;7.826;2023-06-14T02:38:56;5.47;;;4.60;;
81154;SDS011;70631;50.436;7.826;2023-06-14T02:41:24;6.25;;;4.45;;
81154;SDS011;70631;50.436;7.826;2023-06-14T02:43:50;6.18;;;3.65;;
81154;SDS011;70631;50.436;7.826;2023-06-14T02:46:16;4.60;;;4.17;;
81154;SDS011;70631;50.436;7.826;2023-06-14T02:48:41;6.40;;;4.37;;
81154;SDS011;70631;50.436;7.826;2023-06-14T02:51:06;6.53;;;4.00;;
81154;SDS011;70631;50.436;7.826;2023-06-14T02:53:33;6.68;;;3.95;;
81154;SDS011;70631;50.436;7.826;2023-06-14T02:55:59;5.57;;;4.15;;
81154;SDS011;70631;50.436;7.826;2023-06-14T02:58:24;6.22;;;4.40;;
81154;SDS011;70631;50.436;7.826;2023-06-14T03:00:50;5.72;;;4.15;;
81154;SDS011;70631;50.436;7.826;2023-06-14T03:03:17;5.15;;;4.05;;
81154;SDS011;70631;50.436;7.826;2023-06-14T03:05:43;5.40;;;4.25;;
81154;SDS011;70631;50.436;7.826;2023-06-14T03:08:15;6.28;;;4.47;;
81154;SDS011;70631;50.436;7.826;2023-06-14T03:10:47;5.38;;;3.78;;
81154;SDS011;70631;50.436;7.826;2023-06-14T03:13:13;4.13;;;3.72;;
81154;SDS011;70631;50.436;7.826;2023-06-14T03:15:38;4.97;;;4.47;;
81154;SDS011;70631;50.436;7.826;2023-06-14T03:18:06;6.00;;;4.10;;
81154;SDS011;70631;50.436;7.826;2023-06-14T03:20:32;5.35;;;4.45;;
81154;SDS011;70631;50.436;7.826;2023-06-14T03:23:01;6.43;;;4.30;;
81154;SDS011;70631;50.436;7.826;2023-06-14T03:25:28;6.43;;;4.07;;
81154;SDS011;70631;50.436;7.826;2023-06-14T03:27:58;5.85;;;4.03;;
81154;SDS011;70631;50.436;7.826;2023-06-14T03:30:23;8.02;;;4.00;;
81154;SDS011;70631;50.436;7.826;2023-06-14T03:32:48;4.70;;;3.67;;
81154;SDS011;70631;50.436;7.826;2023-06-14T03:35:16;6.25;;;3.97;;
81154;SDS011;70631;50.436;7.826;2023-06-14T03:37:45;6.72;;;4.18;;
81154;SDS011;70631;50.436;7.826;2023-06-14T03:40:12;5.22;;;4.55;;
81154;SDS011;70631;50.436;7.826;2023-06-14T03:42:39;7.65;;;4.47;;
81154;SDS011;70631;50.436;7.826;2023-06-14T03:45:04;4.50;;;4.00;;
81154;SDS011;70631;50.436;7.826;2023-06-14T03:47:35;4.53;;;4.05;;
81154;SDS011;70631;50.436;7.826;2023-06-14T03:50:01;7.47;;;4.47;;
81154;SDS011;70631;50.436;7.826;2023-06-14T03:52:27;5.55;;;4.00;;
81154;SDS011;70631;50.436;7.826;2023-06-14T03:54:53;5.00;;;4.28;;
81154;SDS011;70631;50.436;7.826;2023-06-14T03:57:18;5.00;;;4.38;;
81154;SDS011;70631;50.436;7.826;2023-06-14T03:59:44;4.30;;;3.90;;
81154;SDS011;70631;50.436;7.826;2023-06-14T04:02:09;5.37;;;4.10;;
81154;SDS011;70631;50.436;7.826;2023-06-14T04:04:35;4.57;;;4.00;;
81154;SDS011;70631;50.436;7.826;2023-06-14T04:07:01;5.55;;;4.13;;
81154;SDS011;70631;50.436;7.826;2023-06-14T04:09:28;7.68;;;4.50;;
81154;SDS011;70631;50.436;7.826;2023-06-14T04:11:54;4.80;;;4.20;;
81154;SDS011;70631;50.436;7.826;2023-06-14T04:14:20;7.13;;;3.90;;
81154;SDS011;70631;50.436;7.826;2023-06-14T04:16:49;6.35;;;3.90;;
81154;SDS011;70631;50.436;7.826;2023-06-14T04:19:17;7.72;;;4.00;;
81154;SDS011;70631;50.436;7.826;2023-06-14T04:21:42;4.50;;;4.07;;
81154;SDS011;70631;50.436;7.826;2023-06-14T04:24:08;5.60;;;4.33;;
81154;SDS011;70631;50.436;7.826;2023-06-14T04:26:38;5.55;;;4.47;;
81154;SDS011;70631;50.436;7.826;2023-06-14T04:29:04;7.68;;;4.30;;
81154;SDS011;70631;50.436;7.826;2023-06-14T04:31:30;5.18;;;4.38;;
81154;SDS011;70631;50.436;7.826;2023-06-14T04:33:58;6.70;;;4.80;;
81154;SDS011;70631;50.436;7.826;2023-06-14T04:36:24;8.50;;;4.25;;
81154;SDS011;70631;50.436;7.826;2023-06-14T04:38:51;7.03;;;4.80;;
81154;SDS011;70631;50.436;7.826;2023-06-14T04:41:19;6.82;;;4.95;;
81154;SDS011;70631;50.436;7.826;2023-06-14T04:43:48;7.40;;;4.60;;
81154;SDS011;70631;50.436;7.826;2023-06-14T04:46:14;11.73;;;4.60;;
81154;SDS011;70631;50.436;7.826;2023-06-14T04:48:40;8.15;;;4.63;;
81154;SDS011;70631;50.436;7.826;2023-06-14T04:51:07;7.90;;;4.40;;
81154;SDS011;70631;50.436;7.826;2023-06-14T04:53:33;15.32;;;5.10;;
81154;SDS011;70631;50.436;7.826;2023-06-14T04:55:59;34.25;;;7.32;;
81154;SDS011;70631;50.436;7.826;2023-06-14T04:58:25;46.42;;;8.05;;
81154;SDS011;70631;50.436;7.826;2023-06-14T05:00:51;35.65;;;7.75;;
81154;SDS011;70631;50.436;7.826;2023-06-14T05:03:16;33.97;;;7.10;;
81154;SDS011;70631;50.436;7.826;2023-06-14T05:05:43;40.97;;;8.27;;
81154;SDS011;70631;50.436;7.826;2023-06-14T05:08:08;24.70;;;6.50;;
81154;SDS011;70631;50.436;7.826;2023-06-14T05:10:34;15.57;;;5.30;;
81154;SDS011;70631;50.436;7.826;2023-06-14T05:13:01;18.40;;;5.13;;
81154;SDS011;70631;50.436;7.826;2023-06-14T05:15:26;5.75;;;3.67;;
81154;SDS011;70631;50.436;7.826;2023-06-14T05:17:52;5.70;;;3.30;;
81154;SDS011;70631;50.436;7.826;2023-06-14T05:20:20;4.55;;;3.50;;
81154;SDS011;70631;50.436;7.826;2023-06-14T05:22:47;5.88;;;3.83;;
81154;SDS011;70631;50.436;7.826;2023-06-14T05:25:15;7.80;;;4.07;;
81154;SDS011;70631;50.436;7.826;2023-06-14T05:27:40;4.35;;;3.63;;
81154;SDS011;70631;50.436;7.826;2023-06-14T05:30:07;6.28;;;3.63;;
81154;SDS011;70631;50.436;7.826;2023-06-14T05:32:33;4.38;;;3.63;;
81154;SDS011;70631;50.436;7.826;2023-06-14T05:34:59;7.13;;;3.85;;
81154;SDS011;70631;50.436;7.826;2023-06-14T05:37:24;3.88;;;3.53;;
81154;SDS011;70631;50.436;7.826;2023-06-14T05:39:49;9.07;;;4.00;;
81154;SDS011;70631;50.436;7.826;2023-06-14T05:42:15;5.35;;;4.07;;
81154;SDS011;70631;50.436;7.826;2023-06-14T05:44:40;6.70;;;3.70;;
81154;SDS011;70631;50.436;7.826;2023-06-14T05:47:05;6.67;;;4.00;;
81154;SDS011;70631;50.436;7.826;2023-06-14T05:49:31;6.50;;;3.57;;
81154;SDS011;70631;50.436;7.826;2023-06-14T05:51:57;5.72;;;3.72;;
81154;SDS011;70631;50.436;7.826;2023-06-14T05:54:22;9.43;;;4.17;;
81154;SDS011;70631;50.436;7.826;2023-06-14T05:56:47;5.93;;;3.53;;
81154;SDS011;70631;50.436;7.826;2023-06-14T05:59:12;9.13;;;4.20;;
81154;SDS011;70631;50.436;7.826;2023-06-14T06:01:38;7.60;;;4.10;;
81154;SDS011;70631;50.436;7.826;2023-06-14T06:04:05;5.25;;;3.83;;
81154;SDS011;70631;50.436;7.826;2023-06-14T06:06:30;6.97;;;3.30;;
81154;SDS011;70631;50.436;7.826;2023-06-14T06:08:55;5.97;;;3.13;;
81154;SDS011;70631;50.436;7.826;2023-06-14T06:11:20;5.73;;;3.50;;
81154;SDS011;70631;50.436;7.826;2023-06-14T06:13:46;4.53;;;3.37;;
81154;SDS011;70631;50.436;7.826;2023-06-14T06:16:11;8.87;;;3.53;;
81154;SDS011;70631;50.436;7.826;2023-06-14T06:18:36;5.33;;;3.30;;
81154;SDS011;70631;50.436;7.826;2023-06-14T06:21:03;3.13;;;2.83;;
81154;SDS011;70631;50.436;7.826;2023-06-14T06:23:28;4.10;;;3.17;;
81154;SDS011;70631;50.436;7.826;2023-06-14T06:25:54;6.65;;;2.85;;
81154;SDS011;70631;50.436;7.826;2023-06-14T06:28:19;6.00;;;3.13;;
81154;SDS011;70631;50.436;7.826;2023-06-14T06:30:45;4.97;;;3.10;;
81154;SDS011;70631;50.436;7.826;2023-06-14T06:33:10;4.88;;;3.20;;
81154;SDS011;70631;50.436;7.826;2023-06-14T06:35:36;4.07;;;3.45;;
81154;SDS011;70631;50.436;7.826;2023-06-14T06:38:02;6.40;;;2.95;;
81154;SDS011;70631;50.436;7.826;2023-06-14T06:40:27;4.78;;;3.25;;
81154;SDS011;70631;50.436;7.826;2023-06-14T06:42:53;3.27;;;2.97;;
81154;SDS011;70631;50.436;7.826;2023-06-14T06:45:19;7.38;;;3.25;;
81154;SDS011;70631;50.436;7.826;2023-06-14T06:47:44;4.20;;;3.33;;
81154;SDS011;70631;50.436;7.826;2023-06-14T06:50:09;5.43;;;3.03;;
81154;SDS011;70631;50.436;7.826;2023-06-14T06:52:35;6.57;;;3.22;;
81154;SDS011;70631;50.436;7.826;2023-06-14T06:55:00;5.47;;;3.00;;
81154;SDS011;70631;50.436;7.826;2023-06-14T06:57:27;5.47;;;3.00;;
81154;SDS011;70631;50.436;7.826;2023-06-14T06:59:53;3.60;;;2.67;;
81154;SDS011;70631;50.436;7.826;2023-06-14T07:02:19;4.43;;;3.00;;
81154;SDS011;70631;50.436;7.826;2023-06-14T07:04:44;5.30;;;2.57;;
81154;SDS011;70631;50.436;7.826;2023-06-14T07:07:09;3.87;;;3.03;;
81154;SDS011;70631;50.436;7.826;2023-06-14T07:09:35;3.15;;;2.47;;
81154;SDS011;70631;50.436;7.826;2023-06-14T07:12:00;6.20;;;3.95;;
81154;SDS011;70631;50.436;7.826;2023-06-14T07:14:26;5.97;;;2.60;;
81154;SDS011;70631;50.436;7.826;2023-06-14T07:16:51;3.20;;;2.20;;
81154;SDS011;70631;50.436;7.826;2023-06-14T07:19:16;4.73;;;2.50;;
81154;SDS011;70631;50.436;7.826;2023-06-14T07:21:42;2.75;;;2.55;;
81154;SDS011;70631;50.436;7.826;2023-06-14T07:24:07;3.33;;;2.37;;
81154;SDS011;70631;50.436;7.826;2023-06-14T07:26:33;6.13;;;2.67;;
81154;SDS011;70631;50.436;7.826;2023-06-14T07:28:58;3.00;;;2.50;;
81154;SDS011;70631;50.436;7.826;2023-06-14T07:31:23;3.83;;;2.30;;
81154;SDS011;70631;50.436;7.826;2023-06-14T07:33:49;5.83;;;3.00;;
81154;SDS011;70631;50.436;7.826;2023-06-14T07:36:14;2.43;;;2.23;;
81154;SDS011;70631;50.436;7.826;2023-06-14T07:38:39;3.40;;;2.40;;
81154;SDS011;70631;50.436;7.826;2023-06-14T07:41:05;3.80;;;2.40;;
81154;SDS011;70631;50.436;7.826;2023-06-14T07:43:31;2.80;;;2.60;;
81154;SDS011;70631;50.436;7.826;2023-06-14T07:45:56;6.53;;;2.27;;
81154;SDS011;70631;50.436;7.826;2023-06-14T07:48:22;2.63;;;2.35;;
81154;SDS011;70631;50.436;7.826;2023-06-14T07:50:47;3.20;;;2.55;;
81154;SDS011;70631;50.436;7.826;2023-06-14T07:53:12;5.40;;;2.38;;
81154;SDS011;70631;50.436;7.826;2023-06-14T07:55:38;3.77;;;2.30;;
81154;SDS011;70631;50.436;7.826;2023-06-14T07:58:04;4.32;;;2.60;;
81154;SDS011;70631;50.436;7.826;2023-06-14T08:00:33;3.20;;;2.20;;
81154;SDS011;70631;50.436;7.826;2023-06-14T08:02:58;4.03;;;2.70;;
81154;SDS011;70631;50.436;7.826;2023-06-14T08:05:27;2.40;;;2.10;;
81154;SDS011;70631;50.436;7.826;2023-06-14T08:07:53;4.53;;;2.20;;
81154;SDS011;70631;50.436;7.826;2023-06-14T08:10:19;2.60;;;2.35;;
81154;SDS011;70631;50.436;7.826;2023-06-14T08:12:44;3.58;;;2.30;;
81154;SDS011;70631;50.436;7.826;2023-06-14T08:15:10;6.00;;;2.20;;
81154;SDS011;70631;50.436;7.826;2023-06-14T08:17:35;3.63;;;1.93;;
81154;SDS011;70631;50.436;7.826;2023-06-14T08:20:01;3.80;;;2.30;;
81154;SDS011;70631;50.436;7.826;2023-06-14T08:22:26;2.60;;;1.80;;
81154;SDS011;70631;50.436;7.826;2023-06-14T08:24:53;3.10;;;2.10;;
81154;SDS011;70631;50.436;7.826;2023-06-14T08:27:19;4.07;;;2.30;;
81154;SDS011;70631;50.436;7.826;2023-06-14T08:29:45;3.90;;;2.90;;
81154;SDS011;70631;50.436;7.826;2023-06-14T08:32:11;3.17;;;2.10;;
81154;SDS011;70631;50.436;7.826;2023-06-14T08:34:36;2.30;;;2.15;;
81154;SDS011;70631;50.436;7.826;2023-06-14T08:37:01;3.23;;;2.47;;
81154;SDS011;70631;50.436;7.826;2023-06-14T08:39:27;5.00;;;2.43;;
81154;SDS011;70631;50.436;7.826;2023-06-14T08:41:52;2.97;;;1.90;;
81154;SDS011;70631;50.436;7.826;2023-06-14T08:44:17;3.47;;;1.90;;
81154;SDS011;70631;50.436;7.826;2023-06-14T08:46:43;4.47;;;2.40;;
81154;SDS011;70631;50.436;7.826;2023-06-14T08:49:11;4.78;;;2.17;;
81154;SDS011;70631;50.436;7.826;2023-06-14T08:51:37;2.00;;;1.50;;
81154;SDS011;70631;50.436;7.826;2023-06-14T08:54:03;2.97;;;2.28;;
81154;SDS011;70631;50.436;7.826;2023-06-14T08:56:30;2.08;;;1.83;;
81154;SDS011;70631;50.436;7.826;2023-06-14T08:58:57;5.25;;;2.03;;
81154;SDS011;70631;50.436;7.826;2023-06-14T09:01:26;2.97;;;1.73;;
81154;SDS011;70631;50.436;7.826;2023-06-14T09:03:51;2.63;;;2.00;;
81154;SDS011;70631;50.436;7.826;2023-06-14T09:06:20;4.03;;;1.95;;
81154;SDS011;70631;50.436;7.826;2023-06-14T09:08:47;1.85;;;1.75;;
81154;SDS011;70631;50.436;7.826;2023-06-14T09:11:14;7.13;;;1.95;;
81154;SDS011;70631;50.436;7.826;2023-06-14T09:13:41;2.20;;;2.05;;
81154;SDS011;70631;50.436;7.826;2023-06-14T09:16:07;5.80;;;2.10;;
81154;SDS011;70631;50.436;7.826;2023-06-14T09:18:34;3.53;;;2.20;;
81154;SDS011;70631;50.436;7.826;2023-06-14T09:21:07;2.35;;;1.88;;
81154;SDS011;70631;50.436;7.826;2023-06-14T09:23:33;2.72;;;2.08;;
81154;SDS011;70631;50.436;7.826;2023-06-14T09:26:09;2.30;;;2.10;;
81154;SDS011;70631;50.436;7.826;2023-06-14T09:28:47;4.40;;;2.15;;
81154;SDS011;70631;50.436;7.826;2023-06-14T09:31:14;4.93;;;2.17;;
81154;SDS011;70631;50.436;7.826;2023-06-14T09:33:44;2.95;;;2.42;;
81154;SDS011;70631;50.436;7.826;2023-06-14T09:36:17;2.30;;;1.50;;
81154;SDS011;70631;50.436;7.826;2023-06-14T09:38:56;1.60;;;1.50;;
81154;SDS011;70631;50.436;7.826;2023-06-14T09:41:35;2.30;;;1.90;;
81154;SDS011;70631;50.436;7.826;2023-06-14T09:44:07;4.05;;;1.95;;
81154;SDS011;70631;50.436;7.826;2023-06-14T09:46:34;6.43;;;2.10;;
81154;SDS011;70631;50.436;7.826;2023-06-14T09:49:00;6.30;;;1.65;;
81154;SDS011;70631;50.436;7.826;2023-06-14T09:51:26;2.58;;;1.70;;
81154;SDS011;70631;50.436;7.826;2023-06-14T09:53:53;3.10;;;1.50;;
81154;SDS011;70631;50.436;7.826;2023-06-14T09:56:26;2.78;;;1.42;;
81154;SDS011;70631;50.436;7.826;2023-06-14T09:58:55;2.75;;;1.60;;
81154;SDS011;70631;50.436;7.826;2023-06-14T10:01:23;1.58;;;1.40;;
81154;SDS011;70631;50.436;7.826;2023-06-14T10:03:50;1.63;;;1.52;;
81154;SDS011;70631;50.436;7.826;2023-06-14T10:06:20;3.78;;;1.48;;
81154;SDS011;70631;50.436;7.826;2023-06-14T10:08:49;3.22;;;1.40;;
81154;SDS011;70631;50.436;7.826;2023-06-14T10:11:17;3.00;;;1.65;;
81154;SDS011;70631;50.436;7.826;2023-06-14T10:13:43;2.72;;;1.65;;
81154;SDS011;70631;50.436;7.826;2023-06-14T10:16:23;4.60;;;1.60;;
81154;SDS011;70631;50.436;7.826;2023-06-14T10:24:30;1.70;;;1.30;;
81154;SDS011;70631;50.436;7.826;2023-06-14T10:26:58;2.85;;;1.80;;
81154;SDS011;70631;50.436;7.826;2023-06-14T10:29:27;4.28;;;1.48;;
81154;SDS011;70631;50.436;7.826;2023-06-14T10:31:57;2.13;;;1.73;;
81154;SDS011;70631;50.436;7.826;2023-06-14T10:34:24;2.05;;;1.50;;
81154;SDS011;70631;50.436;7.826;2023-06-14T10:37:00;2.17;;;1.40;;
81154;SDS011;70631;50.436;7.826;2023-06-14T10:39:30;2.15;;;1.70;;
81154;SDS011;70631;50.436;7.826;2023-06-14T10:41:56;1.70;;;1.42;;
81154;SDS011;70631;50.436;7.826;2023-06-14T10:47:10;1.57;;;1.47;;
81154;SDS011;70631;50.436;7.826;2023-06-14T10:49:53;4.13;;;1.80;;
81154;SDS011;70631;50.436;7.826;2023-06-14T10:52:21;3.88;;;1.77;;
81154;SDS011;70631;50.436;7.826;2023-06-14T10:57:43;5.57;;;1.92;;
81154;SDS011;70631;50.436;7.826;2023-06-14T11:00:11;2.35;;;1.85;;
81154;SDS011;70631;50.436;7.826;2023-06-14T11:05:48;2.20;;;1.95;;
81154;SDS011;70631;50.436;7.826;2023-06-14T11:08:22;7.15;;;1.90;;
81154;SDS011;70631;50.436;7.826;2023-06-14T11:10:59;3.10;;;1.98;;
81154;SDS011;70631;50.436;7.826;2023-06-14T11:13:25;2.17;;;1.98;;
81154;SDS011;70631;50.436;7.826;2023-06-14T11:15:51;2.28;;;2.08;;
81154;SDS011;70631;50.436;7.826;2023-06-14T11:20:52;2.83;;;1.98;;
81154;SDS011;70631;50.436;7.826;2023-06-14T11:23:18;5.10;;;2.25;;
81154;SDS011;70631;50.436;7.826;2023-06-14T11:25:49;3.28;;;1.70;;
81154;SDS011;70631;50.436;7.826;2023-06-14T11:28:15;4.53;;;2.05;;
81154;SDS011;70631;50.436;7.826;2023-06-14T11:30:40;5.57;;;2.53;;
81154;SDS011;70631;50.436;7.826;2023-06-14T11:33:09;3.50;;;2.20;;
81154;SDS011;70631;50.436;7.826;2023-06-14T11:35:35;2.20;;;2.00;;
81154;SDS011;70631;50.436;7.826;2023-06-14T11:38:01;4.43;;;2.45;;
81154;SDS011;70631;50.436;7.826;2023-06-14T11:40:26;2.67;;;1.80;;
81154;SDS011;70631;50.436;7.826;2023-06-14T11:42:59;4.18;;;2.10;;
81154;SDS011;70631;50.436;7.826;2023-06-14T11:45:25;2.38;;;2.17;;
81154;SDS011;70631;50.436;7.826;2023-06-14T11:47:51;6.03;;;2.50;;
81154;SDS011;70631;50.436;7.826;2023-06-14T11:50:19;5.40;;;3.03;;
81154;SDS011;70631;50.436;7.826;2023-06-14T11:52:44;6.33;;;2.13;;
81154;SDS011;70631;50.436;7.826;2023-06-14T11:55:09;5.60;;;2.20;;
81154;SDS011;70631;50.436;7.826;2023-06-14T11:57:35;4.50;;;2.00;;
81154;SDS011;70631;50.436;7.826;2023-06-14T12:00:04;2.40;;;2.20;;
81154;SDS011;70631;50.436;7.826;2023-06-14T12:02:40;5.35;;;2.20;;
81154;SDS011;70631;50.436;7.826;2023-06-14T12:05:05;3.65;;;2.20;;
81154;SDS011;70631;50.436;7.826;2023-06-14T12:07:37;3.95;;;2.30;;
81154;SDS011;70631;50.436;7.826;2023-06-14T12:10:05;2.55;;;2.35;;
81154;SDS011;70631;50.436;7.826;2023-06-14T12:12:35;2.45;;;2.25;;
81154;SDS011;70631;50.436;7.826;2023-06-14T12:15:03;5.75;;;2.45;;
81154;SDS011;70631;50.436;7.826;2023-06-14T12:17:31;4.43;;;2.30;;
81154;SDS011;70631;50.436;7.826;2023-06-14T12:19:57;3.78;;;2.20;;
81154;SDS011;70631;50.436;7.826;2023-06-14T12:22:23;8.20;;;2.43;;
81154;SDS011;70631;50.436;7.826;2023-06-14T12:24:48;4.10;;;2.37;;
81154;SDS011;70631;50.436;7.826;2023-06-14T12:27:13;3.38;;;2.10;;
81154;SDS011;70631;50.436;7.826;2023-06-14T12:29:41;2.75;;;2.03;;
81154;SDS011;70631;50.436;7.826;2023-06-14T12:32:08;3.35;;;2.03;;
81154;SDS011;70631;50.436;7.826;2023-06-14T12:34:34;1.85;;;1.42;;
81154;SDS011;70631;50.436;7.826;2023-06-14T12:36:59;2.85;;;1.98;;
81154;SDS011;70631;50.436;7.826;2023-06-14T12:39:24;5.57;;;1.77;;
81154;SDS011;70631;50.436;7.826;2023-06-14T12:41:49;4.90;;;2.10;;
81154;SDS011;70631;50.436;7.826;2023-06-14T12:44:15;2.83;;;1.90;;
81154;SDS011;70631;50.436;7.826;2023-06-14T12:46:41;2.88;;;2.03;;
81154;SDS011;70631;50.436;7.826;2023-06-14T12:49:08;2.65;;;2.00;;
81154;SDS011;70631;50.436;7.826;2023-06-14T12:51:34;4.82;;;2.78;;
81154;SDS011;70631;50.436;7.826;2023-06-14T12:54:00;3.67;;;1.92;;
81154;SDS011;70631;50.436;7.826;2023-06-14T12:56:25;3.30;;;1.85;;
81154;SDS011;70631;50.436;7.826;2023-06-14T12:58:51;2.20;;;2.00;;
81154;SDS011;70631;50.436;7.826;2023-06-14T13:01:16;4.32;;;1.92;;
81154;SDS011;70631;50.436;7.826;2023-06-14T13:03:42;4.88;;;1.75;;
81154;SDS011;70631;50.436;7.826;2023-06-14T13:06:07;2.27;;;1.63;;
81154;SDS011;70631;50.436;7.826;2023-06-14T13:08:33;3.30;;;1.73;;
81154;SDS011;70631;50.436;7.826;2023-06-14T13:10:58;3.53;;;1.87;;
81154;SDS011;70631;50.436;7.826;2023-06-14T13:13:23;4.37;;;1.83;;
81154;SDS011;70631;50.436;7.826;2023-06-14T13:15:49;6.20;;;2.20;;
81154;SDS011;70631;50.436;7.826;2023-06-14T13:18:14;2.92;;;2.10;;
81154;SDS011;70631;50.436;7.826;2023-06-14T13:20:40;2.13;;;1.70;;
81154;SDS011;70631;50.436;7.826;2023-06-14T13:23:05;4.07;;;2.53;;
81154;SDS011;70631;50.436;7.826;2023-06-14T13:25:32;10.48;;;2.08;;
81154;SDS011;70631;50.436;7.826;2023-06-14T13:27:59;4.07;;;1.90;;
81154;SDS011;70631;50.436;7.826;2023-06-14T13:30:24;1.83;;;1.73;;
81154;SDS011;70631;50.436;7.826;2023-06-14T13:32:49;2.03;;;1.90;;
81154;SDS011;70631;50.436;7.826;2023-06-14T13:35:16;4.72;;;2.15;;
81154;SDS011;70631;50.436;7.826;2023-06-14T13:37:42;9.40;;;2.75;;
81154;SDS011;70631;50.436;7.826;2023-06-14T13:40:07;4.27;;;2.07;;
81154;SDS011;70631;50.436;7.826;2023-06-14T13:42:33;3.25;;;2.10;;
81154;SDS011;70631;50.436;7.826;2023-06-14T13:44:58;3.78;;;2.30;;
81154;SDS011;70631;50.436;7.826;2023-06-14T13:47:24;5.68;;;2.40;;
81154;SDS011;70631;50.436;7.826;2023-06-14T13:49:49;3.87;;;2.10;;
81154;SDS011;70631;50.436;7.826;2023-06-14T13:52:14;2.08;;;1.92;;
81154;SDS011;70631;50.436;7.826;2023-06-14T13:54:40;2.05;;;1.85;;
81154;SDS011;70631;50.436;7.826;2023-06-14T13:57:07;2.20;;;2.00;;
81154;SDS011;70631;50.436;7.826;2023-06-14T13:59:32;3.07;;;2.27;;
81154;SDS011;70631;50.436;7.826;2023-06-14T14:01:58;2.78;;;2.05;;
81154;SDS011;70631;50.436;7.826;2023-06-14T14:04:23;5.07;;;2.43;;
81154;SDS011;70631;50.436;7.826;2023-06-14T14:06:48;3.37;;;2.10;;
81154;SDS011;70631;50.436;7.826;2023-06-14T14:09:14;2.90;;;1.90;;
81154;SDS011;70631;50.436;7.826;2023-06-14T14:11:39;3.50;;;2.10;;
81154;SDS011;70631;50.436;7.826;2023-06-14T14:14:06;5.70;;;2.55;;
81154;SDS011;70631;50.436;7.826;2023-06-14T14:16:33;9.20;;;2.87;;
81154;SDS011;70631;50.436;7.826;2023-06-14T14:18:58;3.50;;;2.13;;
81154;SDS011;70631;50.436;7.826;2023-06-14T14:21:23;2.97;;;2.03;;
81154;SDS011;70631;50.436;7.826;2023-06-14T14:23:48;4.27;;;2.33;;
81154;SDS011;70631;50.436;7.826;2023-06-14T14:26:14;4.70;;;2.00;;
81154;SDS011;70631;50.436;7.826;2023-06-14T14:28:40;2.45;;;2.00;;
81154;SDS011;70631;50.436;7.826;2023-06-14T14:31:05;2.67;;;2.10;;
81154;SDS011;70631;50.436;7.826;2023-06-14T14:33:31;1.70;;;1.60;;
81154;SDS011;70631;50.436;7.826;2023-06-14T14:35:56;3.93;;;2.10;;
81154;SDS011;70631;50.436;7.826;2023-06-14T14:38:21;2.20;;;1.97;;
81154;SDS011;70631;50.436;7.826;2023-06-14T14:40:46;3.87;;;2.00;;
81154;SDS011;70631;50.436;7.826;2023-06-14T14:43:12;2.13;;;1.92;;
81154;SDS011;70631;50.436;7.826;2023-06-14T14:45:37;3.97;;;2.17;;
81154;SDS011;70631;50.436;7.826;2023-06-14T14:48:03;3.65;;;2.20;;
81154;SDS011;70631;50.436;7.826;2023-06-14T14:50:28;2.10;;;1.70;;
81154;SDS011;70631;50.436;7.826;2023-06-14T14:52:54;2.30;;;2.10;;
81154;SDS011;70631;50.436;7.826;2023-06-14T14:55:19;4.22;;;2.40;;
81154;SDS011;70631;50.436;7.826;2023-06-14T14:57:45;3.40;;;2.27;;
81154;SDS011;70631;50.436;7.826;2023-06-14T15:00:11;2.75;;;2.33;;
81154;SDS011;70631;50.436;7.826;2023-06-14T15:02:36;3.95;;;2.10;;
81154;SDS011;70631;50.436;7.826;2023-06-14T15:05:02;4.28;;;2.17;;
81154;SDS011;70631;50.436;7.826;2023-06-14T15:07:27;4.32;;;2.40;;